Time;durP1;ratioP1;P1;durP2;ratioP2;P2;SDS_P1;SDS_P2;PMS_P1;PMS_P2;Temp;Humidity;BMP_temperature;BMP_pressure;BME280_temperature;BME280_humidity;BME280_pressure;Samples;Min_cycle;Max_cycle;Signal;HPM_P1;HPM_P2
2021/12/20 00:01:17;;;;;;;11.30;1.95;;;;;;;22.29;53.28;99853.59;7313329;19;154304;-76
2021/12/20 00:03:42;;;;;;;16.30;2.80;;;;;;;22.23;52.79;99843.69;7315563;19;132454;-80
2021/12/20 00:06:07;;;;;;;97.17;8.27;;;;;;;22.34;53.33;99856.63;7314573;19;158643;-39
2021/12/20 00:08:33;;;;;;;25.07;3.93;;;;;;;22.31;52.65;99849.06;7310976;19;150228;-36
2021/12/20 00:10:58;;;;;;;13.85;2.00;;;;;;;22.30;53.32;99842.16;7311044;19;128953;-39
2021/12/20 00:13:23;;;;;;;21.50;2.72;;;;;;;22.34;53.07;99843.53;7311331;19;129223;-40
2021/12/20 00:15:49;;;;;;;11.50;1.70;;;;;;;22.35;52.56;99850.41;7310417;19;158411;-38
2021/12/20 00:18:14;;;;;;;23.83;3.17;;;;;;;22.35;52.45;99855.66;7311830;19;129316;-37
2021/12/20 00:20:40;;;;;;;22.63;3.00;;;;;;;22.34;52.48;99854.00;7311751;19;155262;-37
2021/12/20 00:23:05;;;;;;;17.27;2.88;;;;;;;22.37;52.46;99858.97;7311421;19;129418;-37
2021/12/20 00:25:31;;;;;;;15.30;2.33;;;;;;;22.38;52.44;99860.66;7309532;19;159239;-39
2021/12/20 00:27:56;;;;;;;15.57;2.20;;;;;;;22.36;52.64;99862.56;7312301;19;129036;-38
2021/12/20 00:30:22;;;;;;;13.88;2.03;;;;;;;22.33;52.88;99853.19;7310268;19;154603;-37
2021/12/20 00:32:47;;;;;;;12.02;1.85;;;;;;;22.32;52.66;99862.00;7313066;19;130551;-37
2021/12/20 00:35:13;;;;;;;33.63;4.00;;;;;;;22.34;53.27;99859.25;7311367;19;129759;-39
2021/12/20 00:40:23;;;;;;;19.42;2.45;;;;;;;22.33;52.92;99863.66;7312913;19;128860;-40
2021/12/20 00:42:53;;;;;;;10.82;1.58;;;;;;;22.22;52.82;99850.72;7311189;19;129894;-38
2021/12/20 00:45:20;;;;;;;14.50;1.88;;;;;;;22.29;52.68;99861.47;7310220;19;129311;-39
2021/12/20 00:47:46;;;;;;;15.60;1.83;;;;;;;22.34;53.02;99864.50;7311056;19;129457;-37
2021/12/20 00:50:13;;;;;;;18.15;2.85;;;;;;;22.29;53.31;99866.69;7310992;19;129424;-38
2021/12/20 00:52:39;;;;;;;;;;;;;;;22.40;54.16;99869.16;7310873;19;132900;-38
2021/12/20 00:55:05;;;;;;;17.63;2.45;;;;;;;22.31;52.74;99872.63;7310207;19;131171;-38
2021/12/20 00:57:30;;;;;;;14.57;2.37;;;;;;;22.33;52.53;99857.63;7309798;19;129087;-40
2021/12/20 00:59:55;;;;;;;10.82;1.63;;;;;;;22.35;53.05;99860.91;7310799;19;129439;-38
2021/12/20 01:02:21;;;;;;;9.33;1.57;;;;;;;22.36;52.80;99867.81;7307825;19;159071;-37
2021/12/20 01:04:46;;;;;;;16.00;2.35;;;;;;;22.38;52.95;99873.75;7310126;19;130576;-37
2021/12/20 01:07:11;;;;;;;31.67;4.38;;;;;;;22.36;52.57;99883.53;7305226;19;154571;-41
2021/12/20 01:09:37;;;;;;;20.57;2.93;;;;;;;22.37;52.50;99877.31;7308310;19;155538;-39
2021/12/20 01:12:06;;;;;;;12.10;1.93;;;;;;;22.35;52.87;99881.84;7308768;19;129128;-37
2021/12/20 01:14:34;;;;;;;17.48;2.28;;;;;;;22.31;52.84;99883.94;7311219;19;130536;-38
2021/12/20 01:17:05;;;;;;;13.30;1.98;;;;;;;22.28;52.95;99886.00;7307588;19;129160;-40
2021/12/20 01:19:34;;;;;;;17.48;2.65;;;;;;;22.30;52.60;99886.66;7309158;19;129293;-38
2021/12/20 01:22:00;;;;;;;24.77;3.15;;;;;;;22.28;53.22;99883.38;7310072;19;131902;-40
2021/12/20 01:24:26;;;;;;;13.77;1.97;;;;;;;22.32;53.33;99887.38;7309624;19;129320;-40
2021/12/20 01:26:51;;;;;;;10.15;1.50;;;;;;;22.30;52.85;99884.06;7307720;19;142614;-37
2021/12/20 01:29:16;;;;;;;14.50;1.88;;;;;;;22.34;53.26;99898.53;7308038;19;139978;-38
2021/12/20 01:31:42;;;;;;;18.00;2.30;;;;;;;22.32;52.56;99895.22;7308597;19;129390;-39
2021/12/20 01:34:07;;;;;;;18.25;2.72;;;;;;;22.36;52.74;99904.47;7308980;19;137942;-39
2021/12/20 01:36:32;;;;;;;26.63;3.45;;;;;;;22.33;52.61;99896.91;7308026;19;147120;-38
2021/12/20 01:38:58;;;;;;;11.67;1.83;;;;;;;22.33;52.97;99896.91;7307859;19;154695;-37
2021/12/20 01:41:23;;;;;;;11.40;1.77;;;;;;;22.28;52.46;99880.78;7310103;19;129581;-39
2021/12/20 01:43:49;;;;;;;23.85;3.97;;;;;;;22.26;53.17;99880.06;7308800;19;153789;-37
2021/12/20 01:46:14;;;;;;;22.27;2.83;;;;;;;22.32;53.27;99903.09;7307264;19;150465;-38
2021/12/20 01:48:42;;;;;;;20.45;2.88;;;;;;;22.26;52.82;99898.41;7308681;19;129675;-38
2021/12/20 01:53:35;;;;;;;18.08;2.65;;;;;;;22.31;53.04;99911.91;7309328;19;159048;-38
2021/12/20 01:56:00;;;;;;;14.48;2.17;;;;;;;22.24;53.17;99902.94;7308020;19;129471;-37
2021/12/20 01:58:27;;;;;;;14.88;2.10;;;;;;;22.34;52.63;99916.88;7308723;19;129425;-38
2021/12/20 02:03:41;;;;;;;21.90;2.85;;;;;;;22.34;52.98;99906.41;7309689;19;129986;-38
2021/12/20 02:06:14;;;;;;;24.80;3.15;;;;;;;22.33;52.65;99908.19;7308348;19;129265;-37
2021/12/20 02:08:40;;;;;;;16.63;2.33;;;;;;;22.30;52.67;99910.25;7308857;19;129292;-38
2021/12/20 02:11:09;;;;;;;19.05;2.63;;;;;;;22.31;53.49;99912.75;7307332;19;129088;-39
2021/12/20 02:13:36;;;;;;;20.65;3.17;;;;;;;22.32;52.91;99917.03;7314804;19;130343;-37
2021/12/20 02:16:01;;;;;;;15.73;2.10;;;;;;;22.35;53.38;99914.13;7314108;19;129513;-37
2021/12/20 02:18:28;;;;;;;8.18;1.42;;;;;;;22.35;52.99;99910.66;7315727;19;130525;-37
2021/12/20 02:20:53;;;;;;;;;;;;;;;22.40;53.40;99913.69;7316974;19;130306;-40
2021/12/20 02:23:19;;;;;;;15.90;2.17;;;;;;;22.27;53.41;99906.13;7315397;19;129678;-38
2021/12/20 02:25:44;;;;;;;14.13;1.90;;;;;;;22.35;53.34;99921.16;7315083;19;128940;-38
2021/12/20 02:28:12;;;;;;;21.33;3.22;;;;;;;22.35;52.87;99918.53;7314735;19;129140;-39
2021/12/20 02:30:48;;;;;;;13.02;1.95;;;;;;;22.34;53.38;99916.88;7315561;19;129942;-38
2021/12/20 02:38:43;;;;;;;18.80;2.55;;;;;;;22.36;52.73;99920.19;7315847;19;128980;-38
2021/12/20 02:41:16;;;;;;;;;;;;;;;22.31;54.20;99907.53;7315162;19;129230;-38
2021/12/20 02:43:53;;;;;;;17.23;2.65;;;;;;;22.33;53.05;99929.13;7314510;19;129232;-38
2021/12/20 02:46:43;;;;;;;13.17;2.13;;;;;;;22.38;53.08;99923.50;7314237;19;129530;-39
2021/12/20 02:49:20;;;;;;;22.50;3.17;;;;;;;22.36;53.14;99921.00;7314738;19;129630;-37
2021/12/20 02:51:47;;;;;;;14.23;1.92;;;;;;;22.37;52.54;99911.38;7313478;19;129005;-38
2021/12/20 02:54:13;;;;;;;18.95;2.58;;;;;;;22.37;52.69;99919.22;7314643;19;130363;-38
2021/12/20 02:56:39;;;;;;;10.10;1.70;;;;;;;22.34;52.76;99932.59;7313984;19;129203;-39
2021/12/20 02:59:07;;;;;;;18.65;2.38;;;;;;;22.39;53.00;99930.41;7314112;19;129213;-38
2021/12/20 03:01:32;;;;;;;17.85;2.80;;;;;;;22.35;52.90;99923.75;7314559;19;129189;-38
2021/12/20 03:03:59;;;;;;;16.25;2.53;;;;;;;22.36;53.07;99928.06;7313965;19;130176;-38
2021/12/20 03:06:39;;;;;;;12.43;1.70;;;;;;;22.33;53.60;99926.53;7313145;19;128900;-38
2021/12/20 03:09:06;;;;;;;16.17;2.38;;;;;;;22.27;53.54;99931.47;7312711;19;128919;-38
2021/12/20 03:11:31;;;;;;;;;;;;;;;22.36;53.58;99947.19;7313309;19;130753;-38
2021/12/20 03:14:09;;;;;;;31.53;4.37;;;;;;;22.30;53.12;99958.22;7313603;19;130388;-39
2021/12/20 03:16:35;;;;;;;14.25;2.10;;;;;;;22.25;53.07;99951.72;7312177;19;128835;-38
2021/12/20 03:19:01;;;;;;;16.55;2.55;;;;;;;22.30;52.71;99963.47;7313142;19;154415;-37
2021/12/20 03:21:27;;;;;;;9.63;1.42;;;;;;;22.35;52.64;99960.44;7314969;19;131605;-37
2021/12/20 03:23:52;;;;;;;21.33;3.60;;;;;;;22.27;53.27;99962.91;7310466;19;132899;-38
2021/12/20 03:26:17;;;;;;;24.08;3.15;;;;;;;22.21;53.32;99942.50;7311763;19;155378;-39
2021/12/20 03:28:42;;;;;;;19.45;2.47;;;;;;;22.29;53.47;99947.91;7314203;19;129836;-38
2021/12/20 03:31:08;;;;;;;16.48;2.35;;;;;;;22.33;52.89;99962.38;7311339;19;159236;-40
2021/12/20 03:33:33;;;;;;;16.42;2.38;;;;;;;22.34;52.72;99958.78;7312991;19;158329;-38
2021/12/20 03:35:58;;;;;;;12.52;1.90;;;;;;;22.29;53.06;99974.09;7312214;19;154608;-39
2021/12/20 03:38:24;;;;;;;13.25;1.90;;;;;;;22.29;53.53;99971.47;7311939;19;146863;-39
2021/12/20 03:40:49;;;;;;;13.82;1.85;;;;;;;22.21;53.50;99963.47;7313483;19;129516;-39
2021/12/20 03:43:17;;;;;;;21.88;3.03;;;;;;;22.28;53.29;99975.06;7311021;19;159550;-40
2021/12/20 03:45:44;;;;;;;12.68;1.80;;;;;;;22.29;53.42;99971.47;7311715;19;130091;-38
2021/12/20 03:48:10;;;;;;;22.65;3.28;;;;;;;22.35;53.23;99973.53;7312560;19;128805;-38
2021/12/20 03:50:35;;;;;;;14.35;1.95;;;;;;;22.33;53.36;99972.88;7311082;19;158271;-38
2021/12/20 03:53:00;;;;;;;17.17;2.47;;;;;;;22.28;52.73;99981.09;7311458;19;158768;-38
2021/12/20 03:55:25;;;;;;;11.90;1.63;;;;;;;22.32;53.05;99979.88;7310683;19;155322;-39
2021/12/20 03:57:51;;;;;;;8.15;1.38;;;;;;;22.31;53.44;99974.78;7312489;19;129358;-39
2021/12/20 04:00:16;;;;;;;13.75;1.88;;;;;;;22.24;53.39;99971.03;7313091;19;129703;-37
2021/12/20 04:02:45;;;;;;;18.92;2.58;;;;;;;22.30;53.16;99983.59;7313270;19;130721;-37
2021/12/20 04:05:12;;;;;;;18.88;2.63;;;;;;;22.32;53.21;99990.38;7312212;19;128975;-38
2021/12/20 04:07:38;;;;;;;15.88;2.17;;;;;;;22.32;53.17;99995.59;7312989;19;129196;-39
2021/12/20 04:10:04;;;;;;;15.98;2.25;;;;;;;22.24;53.18;99979.75;7312450;19;129569;-40
2021/12/20 04:12:30;;;;;;;13.25;1.80;;;;;;;22.31;52.85;99990.50;7310436;19;130967;-38
2021/12/20 04:14:55;;;;;;;11.90;1.67;;;;;;;22.29;53.30;99976.72;7312645;19;129315;-38
2021/12/20 04:17:20;;;;;;;8.85;1.30;;;;;;;22.33;52.73;99993.81;7308645;19;152337;-38
2021/12/20 04:19:46;;;;;;;13.60;1.73;;;;;;;22.29;53.37;99992.41;7311998;19;156829;-38
2021/12/20 04:22:11;;;;;;;19.77;2.58;;;;;;;22.29;52.86;99997.66;7312599;19;158579;-39
2021/12/20 04:24:36;;;;;;;16.50;2.20;;;;;;;22.34;53.03;99993.69;7313113;19;129117;-39
2021/12/20 04:27:02;;;;;;;18.08;3.08;;;;;;;22.27;53.54;99996.97;7308453;19;146165;-40
2021/12/20 04:29:29;;;;;;;12.52;1.80;;;;;;;22.26;53.34;99982.22;7313681;19;130262;-37
2021/12/20 04:31:54;;;;;;;;;;;;;;;22.35;53.97;99986.63;7310451;19;130315;-40
2021/12/20 04:34:19;;;;;;;17.15;2.22;;;;;;;22.27;53.18;99979.47;7311455;19;128881;-38
2021/12/20 04:36:45;;;;;;;11.10;1.58;;;;;;;22.28;53.50;99990.78;7310300;19;129352;-36
2021/12/20 04:39:14;;;;;;;21.45;2.88;;;;;;;22.27;53.21;99987.31;7311184;19;130212;-39
2021/12/20 04:41:40;;;;;;;9.60;1.65;;;;;;;22.27;53.07;99991.72;7312158;19;131270;-37
2021/12/20 04:44:05;;;;;;;23.23;3.65;;;;;;;22.32;53.14;99986.91;7310010;19;129673;-37
2021/12/20 04:46:31;;;;;;;9.63;1.55;;;;;;;22.24;53.49;99997.22;7309821;19;131425;-39
2021/12/20 04:48:56;;;;;;;13.25;1.88;;;;;;;22.27;53.13;99999.56;7311449;19;129387;-37
2021/12/20 04:51:21;;;;;;;16.90;2.13;;;;;;;22.27;53.13;99995.19;7308928;19;159286;-37
2021/12/20 04:53:47;;;;;;;22.92;3.75;;;;;;;22.20;53.21;99998.44;7311655;19;128879;-38
2021/12/20 04:56:12;;;;;;;17.90;2.55;;;;;;;22.31;53.13;100000.97;7308479;19;153982;-38
2021/12/20 04:58:37;;;;;;;16.33;2.30;;;;;;;22.24;53.48;100005.09;7309843;19;145252;-37
2021/12/20 05:01:03;;;;;;;9.63;1.42;;;;;;;22.27;53.56;99994.34;7310238;19;158462;-39
2021/12/20 05:03:28;;;;;;;13.55;2.05;;;;;;;22.29;53.24;99987.19;7312158;19;128819;-37
2021/12/20 05:05:53;;;;;;;13.63;2.03;;;;;;;22.31;53.19;99993.13;7308054;19;154848;-40
2021/12/20 05:08:19;;;;;;;20.80;2.65;;;;;;;22.31;53.34;99990.50;7308965;19;158239;-40
2021/12/20 05:10:45;;;;;;;10.70;1.83;;;;;;;22.29;53.19;100002.91;7310142;19;130377;-38
2021/12/20 05:13:12;;;;;;;19.65;2.63;;;;;;;22.31;53.00;99985.25;7311593;19;128911;-38
2021/12/20 05:15:39;;;;;;;14.98;2.13;;;;;;;22.27;52.94;99981.25;7309709;19;129260;-39
2021/12/20 05:18:08;;;;;;;14.38;2.03;;;;;;;22.31;53.48;99990.50;7311022;19;130591;-39
2021/12/20 05:20:34;;;;;;;21.90;2.80;;;;;;;22.30;52.75;99992.28;7310807;19;129260;-38
2021/12/20 05:23:01;;;;;;;14.50;2.08;;;;;;;22.28;53.46;99991.59;7310611;19;129362;-40
2021/12/20 05:25:28;;;;;;;9.35;1.52;;;;;;;22.32;53.10;100006.09;7310369;19;129396;-38
2021/12/20 05:27:53;;;;;;;;;;;;;;;22.40;53.43;100000.16;7311008;19;129340;-40
2021/12/20 05:30:19;;;;;;;23.75;3.13;;;;;;;22.29;53.07;100002.91;7310416;19;129344;-37
2021/12/20 05:32:44;;;;;;;10.02;1.48;;;;;;;22.24;53.22;100005.09;7306215;19;152812;-37
2021/12/20 05:35:13;;;;;;;23.58;3.15;;;;;;;22.29;53.07;100013.38;7308454;19;129988;-38
2021/12/20 05:37:39;;;;;;;19.23;2.50;;;;;;;22.28;53.37;100022.22;7309105;19;130157;-39
2021/12/20 05:40:06;;;;;;;8.83;1.63;;;;;;;22.29;53.26;100019.44;7307876;19;129768;-37
2021/12/20 05:42:31;;;;;;;;;;;;;;;22.34;54.14;100012.03;7311418;19;129628;-37
2021/12/20 05:44:56;;;;;;;16.57;2.53;;;;;;;22.24;52.58;100019.03;7307210;19;129408;-38
2021/12/20 05:47:22;;;;;;;15.10;2.30;;;;;;;22.25;52.88;100022.44;7309681;19;155678;-40
2021/12/20 05:49:48;;;;;;;20.52;2.67;;;;;;;22.29;52.82;100018.63;7315502;19;140166;-39
2021/12/20 05:52:14;;;;;;;28.15;3.72;;;;;;;22.26;53.50;100021.50;7313910;19;128834;-40
2021/12/20 05:54:39;;;;;;;13.73;2.05;;;;;;;22.27;52.75;100031.84;7314006;19;141621;-39
2021/12/20 05:57:05;;;;;;;19.38;2.50;;;;;;;22.29;53.10;100032.56;7311705;19;159227;-39
2021/12/20 05:59:30;;;;;;;16.20;2.47;;;;;;;22.28;52.63;100033.50;7314983;19;129695;-39
2021/12/20 06:01:55;;;;;;;25.45;3.13;;;;;;;22.24;53.04;100028.66;7314191;19;155226;-37
2021/12/20 06:04:20;;;;;;;24.40;3.45;;;;;;;22.28;52.68;100032.69;7312027;19;152996;-38
2021/12/20 06:06:46;;;;;;;18.75;3.03;;;;;;;22.29;52.42;100039.56;7312496;19;158464;-39
2021/12/20 06:09:11;;;;;;;31.75;4.30;;;;;;;22.28;52.55;100049.22;7311942;19;131295;-41
2021/12/20 06:11:36;;;;;;;19.77;3.03;;;;;;;22.25;53.26;100046.03;7309881;19;154535;-37
2021/12/20 06:14:02;;;;;;;17.37;2.47;;;;;;;22.29;52.64;100047.44;7310082;19;153576;-37
2021/12/20 06:16:27;;;;;;;34.65;4.70;;;;;;;22.24;53.07;100036.53;7309249;19;158549;-37
2021/12/20 06:18:53;;;;;;;20.80;3.03;;;;;;;22.23;52.71;100040.13;7310805;19;145488;-40
2021/12/20 06:21:18;;;;;;;31.05;3.97;;;;;;;22.23;52.41;100045.34;7314004;19;129640;-39
2021/12/20 06:23:44;;;;;;;25.55;3.55;;;;;;;22.16;53.01;100038.97;7311593;19;129526;-38
2021/12/20 06:26:10;;;;;;;21.70;2.93;;;;;;;22.30;52.29;100051.69;7310846;19;130793;-40
2021/12/20 06:28:35;;;;;;;27.65;3.58;;;;;;;22.25;52.66;100059.97;7310318;19;157819;-40
2021/12/20 06:31:01;;;;;;;20.60;2.58;;;;;;;22.26;53.00;100061.63;7310357;19;155335;-39
2021/12/20 06:33:26;;;;;;;19.38;2.47;;;;;;;22.22;53.16;100064.63;7311154;19;130130;-38
2021/12/20 06:35:52;;;;;;;23.02;3.35;;;;;;;22.24;53.06;100067.94;7310648;19;130191;-39
2021/12/20 06:38:20;;;;;;;23.35;3.25;;;;;;;22.28;53.01;100069.34;7310392;19;130397;-39
2021/12/20 06:40:46;;;;;;;23.10;3.10;;;;;;;22.23;53.13;100074.97;7311271;19;129749;-39
2021/12/20 06:43:12;;;;;;;26.73;3.72;;;;;;;22.30;53.17;100083.13;7310808;19;129220;-39
2021/12/20 06:45:38;;;;;;;25.92;3.85;;;;;;;22.26;53.23;100073.88;7309336;19;129110;-37
2021/12/20 06:48:04;;;;;;;24.48;3.38;;;;;;;22.29;53.27;100086.72;7309003;19;130711;-38
2021/12/20 06:50:29;;;;;;;14.03;2.10;;;;;;;22.32;52.78;100075.97;7312218;19;129537;-38
2021/12/20 06:52:55;;;;;;;36.10;4.93;;;;;;;22.32;53.19;100082.06;7306191;19;129855;-38
2021/12/20 06:55:20;;;;;;;30.15;3.67;;;;;;;22.28;53.10;100085.88;7309451;19;129762;-38
2021/12/20 06:57:45;;;;;;;13.82;2.00;;;;;;;22.26;53.32;100087.00;7309056;19;147185;-39
2021/12/20 07:00:11;;;;;;;34.65;4.88;;;;;;;22.27;53.04;100093.88;7305913;19;154739;-40
2021/12/20 07:02:36;;;;;;;18.60;2.60;;;;;;;22.27;53.20;100093.88;7310713;19;128973;-38
2021/12/20 07:05:02;;;;;;;27.10;3.80;;;;;;;22.27;53.08;100101.72;7309716;19;130027;-37
2021/12/20 07:07:28;;;;;;;29.60;3.97;;;;;;;22.21;52.84;100086.56;7307402;19;129411;-39
2021/12/20 07:09:53;;;;;;;24.60;3.45;;;;;;;22.30;52.96;100091.81;7310639;19;129936;-40
2021/12/20 07:12:18;;;;;;;30.20;3.75;;;;;;;22.30;53.33;100094.44;7306326;19;154420;-40
2021/12/20 07:14:44;;;;;;;28.42;3.47;;;;;;;22.23;52.84;100102.97;7308043;19;130241;-38
2021/12/20 07:17:10;;;;;;;26.90;3.78;;;;;;;22.22;53.36;100101.28;7307251;19;130790;-38
2021/12/20 07:19:35;;;;;;;22.38;2.97;;;;;;;22.22;52.77;100106.53;7310262;19;129540;-38
2021/12/20 07:22:00;;;;;;;29.63;3.90;;;;;;;22.17;53.32;100093.84;7309666;19;135009;-40
2021/12/20 07:24:25;;;;;;;20.67;2.77;;;;;;;22.27;53.05;100099.94;7307520;19;159561;-38
2021/12/20 07:26:51;;;;;;;24.27;3.30;;;;;;;22.26;52.94;100105.31;7306234;19;158458;-42
2021/12/20 07:29:19;;;;;;;24.83;3.28;;;;;;;22.23;52.94;100108.22;7308376;19;129001;-38
2021/12/20 07:31:45;;;;;;;26.00;3.17;;;;;;;22.25;52.88;100106.25;7307285;19;129628;-40
2021/12/20 07:34:11;;;;;;;20.37;2.77;;;;;;;22.27;52.81;100106.97;7309591;19;129391;-41
2021/12/20 07:36:37;;;;;;;30.58;4.53;;;;;;;22.24;53.52;100115.09;7305327;19;130424;-37
2021/12/20 07:39:03;;;;;;;32.10;4.47;;;;;;;22.26;52.84;100113.19;7309063;19;129251;-38
2021/12/20 07:41:29;;;;;;;16.20;2.30;;;;;;;22.23;52.91;100113.44;7310177;19;130066;-38
2021/12/20 07:43:54;;;;;;;38.50;5.43;;;;;;;22.20;53.36;100111.06;7307352;19;129402;-39
2021/12/20 07:46:20;;;;;;;23.13;3.63;;;;;;;22.20;53.00;100118.91;7307882;19;147442;-40
2021/12/20 07:48:45;;;;;;;19.65;2.67;;;;;;;22.19;53.09;100114.66;7308457;19;129071;-39
2021/12/20 07:51:11;;;;;;;36.03;5.15;;;;;;;22.19;53.55;100123.34;7308392;19;129629;-37
2021/12/20 07:53:36;;;;;;;23.50;3.45;;;;;;;22.15;52.84;100106.22;7308527;19;130152;-38
2021/12/20 07:56:02;;;;;;;27.73;3.95;;;;;;;22.22;53.18;100127.47;7306543;19;130301;-38
2021/12/20 07:58:27;;;;;;;27.80;4.10;;;;;;;22.23;53.02;100131.78;7308920;19;129417;-39
2021/12/20 08:00:52;;;;;;;17.45;2.55;;;;;;;22.22;53.41;100130.09;7304913;19;154174;-36
2021/12/20 08:03:18;;;;;;;30.63;4.30;;;;;;;22.17;53.24;100122.66;7305195;19;139003;-37
2021/12/20 08:05:43;;;;;;;22.92;3.50;;;;;;;22.26;53.11;100131.50;7307140;19;130826;-39
2021/12/20 08:08:09;;;;;;;27.50;3.95;;;;;;;22.10;53.79;100133.78;7306247;19;130157;-36
2021/12/20 08:10:34;;;;;;;20.95;2.88;;;;;;;22.19;52.95;100133.00;7306221;19;129839;-39
2021/12/20 08:12:59;;;;;;;17.50;2.38;;;;;;;22.23;53.18;100140.44;7304245;19;131144;-38
2021/12/20 08:15:26;;;;;;;27.40;3.63;;;;;;;22.24;53.27;100133.44;7304417;19;129608;-39
2021/12/20 08:17:53;;;;;;;23.00;3.35;;;;;;;22.28;53.52;100132.22;7307459;19;129009;-39
2021/12/20 08:20:18;;;;;;;33.70;4.93;;;;;;;22.37;53.11;100147.13;7306383;19;128933;-38
2021/12/20 08:22:46;;;;;;;22.77;2.88;;;;;;;22.39;53.18;100153.91;7307027;19;129735;-38
2021/12/20 08:25:12;;;;;;;23.63;3.13;;;;;;;22.43;53.35;100147.44;7307377;19;130795;-38
2021/12/20 08:27:38;;;;;;;35.00;4.22;;;;;;;22.39;53.09;100153.91;7306843;19;129409;-38
2021/12/20 08:30:04;;;;;;;24.08;3.30;;;;;;;22.45;53.61;100149.94;7308472;19;128947;-39
2021/12/20 08:32:30;;;;;;;;;;;;;;;22.49;53.74;100151.34;7306209;19;129047;-40
2021/12/20 08:34:55;;;;;;;30.25;3.95;;;;;;;22.40;54.08;100154.72;7305785;19;130323;-38
2021/12/20 08:37:21;;;;;;;22.40;2.90;;;;;;;22.47;53.76;100155.88;7306926;19;129166;-40
2021/12/20 08:39:46;;;;;;;17.50;2.53;;;;;;;22.49;53.91;100156.56;7306153;19;129127;-40
2021/12/20 08:42:12;;;;;;;28.75;3.70;;;;;;;22.40;54.17;100141.63;7306903;19;158483;-39
2021/12/20 08:44:39;;;;;;;20.25;2.67;;;;;;;22.53;53.56;100155.38;7307653;19;130183;-38
2021/12/20 08:47:04;;;;;;;22.95;3.25;;;;;;;22.51;53.71;100152.03;7303897;19;129351;-39
2021/12/20 08:49:29;;;;;;;21.35;3.30;;;;;;;22.46;53.41;100147.16;7306563;19;129438;-37
2021/12/20 08:51:56;;;;;;;23.92;3.20;;;;;;;22.48;53.67;100162.75;7304013;19;157528;-38
2021/12/20 08:54:27;;;;;;;33.45;4.05;;;;;;;22.47;53.98;100168.97;7304964;19;130265;-40
2021/12/20 08:56:53;;;;;;;18.95;2.47;;;;;;;22.43;54.02;100152.69;7305786;19;129493;-39
2021/12/20 08:59:18;;;;;;;20.73;2.95;;;;;;;22.52;53.44;100161.53;7307210;19;130592;-40
2021/12/20 09:01:44;;;;;;;27.80;3.53;;;;;;;22.49;53.77;100167.91;7307051;19;130226;-38
2021/12/20 09:04:09;;;;;;;24.85;3.72;;;;;;;22.49;53.64;100169.69;7305309;19;131286;-40
2021/12/20 09:06:39;;;;;;;33.42;4.85;;;;;;;22.46;53.20;100170.75;7302667;19;129634;-40
2021/12/20 09:09:05;;;;;;;26.70;3.70;;;;;;;22.38;53.30;100170.59;7306205;19;130159;-38
2021/12/20 09:11:30;;;;;;;12.82;2.35;;;;;;;22.47;53.72;100164.56;7305006;19;130624;-40
2021/12/20 09:13:56;;;;;;;29.80;4.53;;;;;;;22.44;52.99;100171.84;7305178;19;129592;-40
2021/12/20 09:16:21;;;;;;;46.58;6.20;;;;;;;22.45;53.00;100178.75;7302759;19;154560;-37
2021/12/20 09:18:48;;;;;;;18.77;2.70;;;;;;;22.43;53.19;100178.88;7303706;19;155562;-40
2021/12/20 09:21:13;;;;;;;39.63;4.93;;;;;;;22.39;53.27;100176.66;7304085;19;130569;-41
2021/12/20 09:23:40;;;;;;;17.88;2.67;;;;;;;22.42;52.85;100176.38;7305069;19;129316;-38
2021/12/20 09:26:05;;;;;;;25.00;3.30;;;;;;;22.39;52.73;100176.66;7301793;19;129771;-40
2021/12/20 09:28:34;;;;;;;29.42;4.05;;;;;;;22.42;52.81;100181.63;7304484;19;130066;-38
2021/12/20 09:31:01;;;;;;;30.27;4.45;;;;;;;22.26;53.34;100160.31;7305017;19;130780;-40
2021/12/20 09:33:26;;;;;;;22.23;3.00;;;;;;;22.35;52.95;100185.72;7303034;19;129811;-41
2021/12/20 09:35:53;;;;;;;21.75;3.10;;;;;;;22.31;53.03;100172.09;7303976;19;156100;-38
2021/12/20 09:38:19;;;;;;;22.08;3.05;;;;;;;22.29;53.01;100189.72;7304238;19;129959;-39
2021/12/20 09:43:28;;;;;;;15.40;2.40;;;;;;;22.22;53.50;100185.09;7304672;19;129959;-38
2021/12/20 09:45:55;;;;;;;14.70;2.20;;;;;;;22.39;53.54;100193.22;7301119;19;130778;-41
2021/12/20 09:48:20;;;;;;;25.42;3.45;;;;;;;22.33;53.25;100182.44;7304188;19;129105;-39
2021/12/20 09:50:46;;;;;;;19.75;2.67;;;;;;;22.48;52.84;100202.06;7303457;19;159020;-38
2021/12/20 09:53:14;;;;;;;35.93;5.33;;;;;;;22.47;53.27;100196.00;7300633;19;130307;-38
2021/12/20 09:55:45;;;;;;;14.50;2.33;;;;;;;22.49;53.57;100193.25;7304250;19;129166;-39
2021/12/20 09:58:10;;;;;;;22.15;3.33;;;;;;;22.46;52.98;100189.09;7303691;19;131048;-39
2021/12/20 10:00:36;;;;;;;25.25;3.45;;;;;;;22.45;53.73;100194.47;7305522;19;129376;-40
2021/12/20 10:03:02;;;;;;;29.70;4.20;;;;;;;22.46;53.17;100196.16;7304147;19;129475;-38
2021/12/20 10:05:27;;;;;;;13.63;2.22;;;;;;;22.50;53.30;100193.13;7303171;19;129268;-37
2021/12/20 10:07:55;;;;;;;28.35;3.75;;;;;;;22.46;53.53;100198.75;7303223;19;129873;-39
2021/12/20 10:10:49;;;;;;;28.80;3.67;;;;;;;22.45;54.05;100192.69;7300711;19;130283;-39
2021/12/20 10:13:22;;;;;;;31.17;5.22;;;;;;;22.53;53.84;100189.44;7301527;19;129578;-40
2021/12/20 10:15:48;;;;;;;18.85;2.50;;;;;;;22.51;53.54;100188.72;7302674;19;129112;-39
2021/12/20 10:18:14;;;;;;;31.30;4.15;;;;;;;22.54;53.90;100191.09;7304076;19;130095;-40
2021/12/20 10:20:39;;;;;;;21.48;3.13;;;;;;;22.52;53.65;100193.00;7303793;19;129601;-37
2021/12/20 10:23:15;;;;;;;33.65;4.78;;;;;;;22.53;54.59;100186.81;7302955;19;129390;-37
2021/12/20 10:25:43;;;;;;;27.52;4.03;;;;;;;22.45;53.70;100166.47;7303540;19;129436;-39
2021/12/20 10:28:13;;;;;;;21.55;2.97;;;;;;;22.56;53.56;100181.34;7304059;19;129423;-38
2021/12/20 10:30:44;;;;;;;24.55;3.63;;;;;;;22.60;53.92;100190.56;7302375;19;130231;-36
2021/12/20 10:33:28;;;;;;;27.50;3.58;;;;;;;22.57;54.45;100188.22;7305011;19;129631;-38
2021/12/20 10:36:00;;;;;;;21.95;2.95;;;;;;;22.58;54.28;100182.00;7308851;19;155427;-36
2021/12/20 10:38:28;;;;;;;20.98;3.17;;;;;;;22.59;54.32;100183.69;7311266;19;129354;-38
2021/12/20 10:40:54;;;;;;;26.33;3.22;;;;;;;22.45;54.34;100171.72;7310658;19;130558;-36
2021/12/20 10:43:25;;;;;;;22.10;2.87;;;;;;;22.53;53.00;100194.66;7310160;19;131176;-38
2021/12/20 10:45:52;;;;;;;22.80;3.42;;;;;;;22.50;53.46;100192.28;7307383;19;130595;-38
2021/12/20 10:48:17;;;;;;;;;;;;;;;22.49;54.11;100177.53;7309341;19;129167;-37
2021/12/20 10:50:43;;;;;;;18.60;2.90;;;;;;;22.55;53.47;100188.34;7311546;19;130752;-39
2021/12/20 10:53:16;;;;;;;24.95;3.63;;;;;;;22.45;53.81;100173.50;7308134;19;129497;-38
2021/12/20 10:55:44;;;;;;;29.60;4.20;;;;;;;22.48;53.39;100186.34;7308766;19;131170;-37
2021/12/20 10:58:18;;;;;;;27.90;3.83;;;;;;;22.52;54.34;100182.50;7309633;19;129815;-38
2021/12/20 11:00:45;;;;;;;23.30;3.45;;;;;;;22.53;53.87;100184.19;7307030;19;130383;-38
2021/12/20 11:03:24;;;;;;;44.60;6.07;;;;;;;22.49;53.85;100174.91;7310249;19;130341;-37
2021/12/20 11:11:19;;;;;;;35.83;4.68;;;;;;;22.57;53.73;100186.44;7311161;19;131223;-37
2021/12/20 11:13:46;;;;;;;33.05;4.78;;;;;;;22.61;54.32;100198.31;7306219;19;129355;-37
2021/12/20 11:16:28;;;;;;;21.45;2.97;;;;;;;22.61;54.09;100187.81;7306945;19;128999;-39
2021/12/20 11:19:06;;;;;;;13.55;2.25;;;;;;;22.54;54.14;100188.50;7309484;19;129442;-39
2021/12/20 11:21:31;;;;;;;35.78;5.07;;;;;;;22.62;54.30;100188.66;7305142;19;158286;-38
2021/12/20 11:23:58;;;;;;;19.33;3.03;;;;;;;22.53;53.96;100187.66;7310534;19;130399;-38
2021/12/20 11:26:23;;;;;;;41.55;6.30;;;;;;;22.54;54.03;100185.88;7306674;19;129526;-38
2021/12/20 11:28:50;;;;;;;18.55;2.70;;;;;;;22.48;54.45;100176.69;7307430;19;155505;-38
2021/12/20 11:31:15;;;;;;;30.35;3.97;;;;;;;22.46;54.48;100173.38;7309920;19;130582;-38
2021/12/20 11:33:41;;;;;;;30.58;4.18;;;;;;;22.57;54.75;100185.59;7304019;19;159177;-38